Terminal Aerodrome Forecast
Issued by NWS

Home | Current Version | Previous Version | Text Only | Print | Product List | Glossary On
Versions: 1 2 3 4 5 6 7 8 9 10 11 12 13 14 15
000
FTUS46 KMFR 040541
TAFOTH
TAF
KOTH 040541Z 0406/0506 35012KT P6SM -SHRA BKN009 OVC015
     FM041600 35015G22KT P6SM VCSH BKN015 OVC025
     FM042000 36022G28KT P6SM VCSH BKN020 OVC035=

USA.gov is the U.S. government's official web portal to all federal, state and local government web resources and services.